createdAt,value
2022-10-22T00:01:00.002Z,99841.38
2022-10-22T00:03:27.958Z,99850.16
2022-10-22T00:05:55.816Z,99843.72
2022-10-22T00:08:25.168Z,99844.91
2022-10-22T00:10:53.600Z,99843.19
2022-10-22T00:13:21.892Z,99804.84
2022-10-22T00:15:49.952Z,99836.06
2022-10-22T00:18:17.816Z,99834.53
2022-10-22T00:20:45.596Z,99830.50
2022-10-22T00:23:13.421Z,99783.44
2022-10-22T00:25:42.785Z,99842.09
2022-10-22T00:28:11.547Z,99844.41
2022-10-22T00:30:39.403Z,99849.09
2022-10-22T00:33:07.273Z,99838.50
2022-10-22T00:35:35.139Z,99836.94
2022-10-22T00:38:03.115Z,99858.03
2022-10-22T00:40:31.600Z,99852.03
2022-10-22T00:43:00.738Z,99853.75
2022-10-22T00:45:29.297Z,99871.56
2022-10-22T00:48:01.039Z,99864.72
2022-10-22T00:50:32.769Z,99865.91
2022-10-22T00:53:02.503Z,99864.19
2022-10-22T00:55:31.688Z,99838.84
2022-10-22T00:58:02.539Z,99869.03
2022-10-22T01:00:30.693Z,99870.00
2022-10-22T01:02:59.469Z,99865.28
2022-10-22T01:05:29.164Z,99837.16
2022-10-22T01:07:57.549Z,99875.78
2022-10-22T01:10:47.284Z,99874.41
2022-10-22T01:13:30.641Z,99877.09
2022-10-22T01:16:09.527Z,99879.75
2022-10-22T01:18:45.699Z,99868.16
2022-10-22T01:21:24.495Z,99873.59
2022-10-22T01:24:13.512Z,99868.97
2022-10-22T01:26:58.221Z,99877.31
2022-10-22T01:29:31.029Z,99878.50
2022-10-22T01:32:03.602Z,99873.13
2022-10-22T01:34:33.321Z,99869.81
2022-10-22T01:37:01.383Z,99867.41
2022-10-22T01:39:32.071Z,99858.44
2022-10-22T01:42:00.322Z,99823.38
2022-10-22T01:44:31.230Z,99848.00
2022-10-22T01:47:09.037Z,99833.66
2022-10-22T01:49:54.903Z,99849.31
2022-10-22T01:52:36.670Z,99839.34
2022-10-22T01:55:17.593Z,99856.34
2022-10-22T01:57:54.593Z,99854.66
2022-10-22T02:00:24.634Z,99844.22
2022-10-22T02:02:59.975Z,99853.84
2022-10-22T02:05:34.038Z,99867.91
2022-10-22T02:08:06.739Z,99861.91
2022-10-22T02:10:35.251Z,99760.41
2022-10-22T02:13:06.006Z,99863.63
2022-10-22T02:15:38.480Z,99850.16
2022-10-22T02:18:10.429Z,99849.41
2022-10-22T02:20:42.752Z,99796.66
2022-10-22T02:23:11.460Z,99854.94
2022-10-22T02:25:43.256Z,99854.31
2022-10-22T02:28:18.439Z,99855.22
2022-10-22T02:30:53.911Z,99866.97
2022-10-22T02:33:25.640Z,99876.94
2022-10-22T02:35:54.238Z,99859.78
2022-10-22T02:38:23.878Z,99866.28
2022-10-22T02:40:51.801Z,99872.34
2022-10-22T02:43:20.258Z,99859.91
2022-10-22T02:45:49.562Z,99868.97
2022-10-22T02:48:17.468Z,99872.94
2022-10-22T02:50:45.418Z,99870.19
2022-10-22T02:53:13.222Z,99874.59
2022-10-22T02:55:41.736Z,99841.94
2022-10-22T02:58:09.502Z,99876.81
2022-10-22T03:00:37.364Z,99886.72
2022-10-22T03:03:06.620Z,99870.38
2022-10-22T03:05:34.492Z,99876.16
2022-10-22T03:08:02.392Z,99738.59
2022-10-22T03:10:30.330Z,99872.41
2022-10-22T03:12:58.109Z,99861.94
2022-10-22T03:17:58.779Z,99871.63
2022-10-22T03:20:28.565Z,99871.06
2022-10-22T03:22:57.716Z,99860.06
2022-10-22T03:25:28.443Z,99872.41
2022-10-22T03:28:00.858Z,99876.22
2022-10-22T03:30:28.779Z,99876.47
2022-10-22T03:32:56.603Z,99879.56
2022-10-22T03:35:24.881Z,99875.22
2022-10-22T03:37:54.881Z,99888.41
2022-10-22T03:40:22.862Z,99897.97
2022-10-22T03:42:50.738Z,99879.28
2022-10-22T03:45:18.747Z,99833.91
2022-10-22T03:47:46.613Z,99903.19
2022-10-22T03:50:14.570Z,99841.66
2022-10-22T03:52:42.396Z,99905.06
2022-10-22T03:55:11.784Z,99902.22
2022-10-22T03:57:39.993Z,99902.81
2022-10-22T04:00:09.936Z,99920.34
2022-10-22T04:02:39.185Z,99878.63
2022-10-22T04:05:08.010Z,99919.84
2022-10-22T04:07:35.882Z,99932.84
2022-10-22T04:10:03.708Z,99935.88
2022-10-22T04:12:32.908Z,99933.63
2022-10-22T04:15:00.702Z,99938.91
2022-10-22T04:17:34.620Z,99928.69
2022-10-22T04:20:02.733Z,99943.69
2022-10-22T04:22:30.598Z,99943.69
2022-10-22T04:24:58.510Z,99936.72
2022-10-22T04:27:26.376Z,99926.56
2022-10-22T04:29:55.769Z,99937.91
2022-10-22T04:32:23.631Z,99823.25
2022-10-22T04:34:51.526Z,99928.59
2022-10-22T04:37:19.435Z,99868.66
2022-10-22T04:39:47.324Z,99918.75
2022-10-22T04:42:15.369Z,99909.44
2022-10-22T04:44:43.200Z,99821.13
2022-10-22T04:47:12.459Z,99934.16
2022-10-22T04:49:41.096Z,99933.09
2022-10-22T04:52:08.987Z,99929.19
2022-10-22T04:54:36.769Z,99915.16
2022-10-22T04:57:04.770Z,99931.88
2022-10-22T04:59:32.683Z,99934.69
2022-10-22T05:02:00.540Z,99932.66
2022-10-22T05:04:29.760Z,99923.25
2022-10-22T05:06:57.711Z,99919.78
2022-10-22T05:09:25.629Z,99927.72
2022-10-22T05:11:54.231Z,99933.09
2022-10-22T05:14:23.932Z,99945.78
2022-10-22T05:16:52.787Z,99946.00
2022-10-22T05:19:24.355Z,99944.09
2022-10-22T05:21:54.583Z,99900.59
2022-10-22T05:24:22.867Z,99934.72
2022-10-22T05:26:51.499Z,99943.50
2022-10-22T05:29:19.943Z,99949.91
2022-10-22T05:31:48.189Z,99938.56
2022-10-22T05:34:16.833Z,99929.66
2022-10-22T05:36:44.932Z,99950.84
2022-10-22T05:39:14.465Z,99952.00
2022-10-22T05:41:42.339Z,99949.63
2022-10-22T05:44:13.393Z,99969.19
2022-10-22T05:46:43.205Z,99962.19
2022-10-22T05:49:14.902Z,99961.53
2022-10-22T05:51:42.840Z,99964.94
2022-10-22T05:54:16.704Z,99970.25
2022-10-22T05:56:46.244Z,99970.16
2022-10-22T05:59:14.082Z,99969.28
2022-10-22T06:01:42.429Z,99858.59
2022-10-22T06:04:12.847Z,99958.03
2022-10-22T06:06:43.832Z,99979.03
2022-10-22T06:09:16.899Z,99980.72
2022-10-22T06:11:46.618Z,99980.94
2022-10-22T06:14:15.519Z,99958.56
2022-10-22T06:16:43.484Z,99953.72
2022-10-22T06:19:16.613Z,99986.25
2022-10-22T06:21:45.567Z,99886.94
2022-10-22T06:24:13.780Z,99984.69
2022-10-22T06:26:42.513Z,99995.53
2022-10-22T06:29:12.170Z,99925.91
2022-10-22T06:31:40.020Z,100001.47
2022-10-22T06:34:09.740Z,100013.63
2022-10-22T06:36:38.051Z,100015.34
2022-10-22T06:39:06.755Z,100016.16
2022-10-22T06:41:34.697Z,100015.88
2022-10-22T06:44:02.566Z,99966.47
2022-10-22T06:46:32.261Z,100031.88
2022-10-22T06:49:02.461Z,100046.31
2022-10-22T06:51:30.761Z,100027.38
2022-10-22T06:53:59.298Z,100045.13
2022-10-22T06:56:28.950Z,100044.56
2022-10-22T06:58:58.311Z,100043.22
2022-10-22T07:01:28.152Z,100051.94
2022-10-22T07:03:57.482Z,100051.84
2022-10-22T07:06:26.368Z,100051.84
2022-10-22T07:08:55.207Z,100058.31
2022-10-22T07:11:24.656Z,100060.25
2022-10-22T07:13:54.994Z,100052.72
2022-10-22T07:16:25.727Z,100058.38
2022-10-22T07:18:57.441Z,100010.63
2022-10-22T07:21:26.124Z,100055.66
2022-10-22T07:23:54.115Z,100054.63
2022-10-22T07:26:22.383Z,100029.25
2022-10-22T07:28:50.243Z,100065.34
2022-10-22T07:31:19.106Z,100048.03
2022-10-22T07:33:47.231Z,100060.06
2022-10-22T07:36:18.462Z,100073.44
2022-10-22T07:38:47.112Z,100078.06
2022-10-22T07:41:15.643Z,100077.31
2022-10-22T07:43:44.078Z,100082.88
2022-10-22T07:46:12.606Z,100088.41
2022-10-22T07:48:40.511Z,100084.00
2022-10-22T07:51:09.246Z,100095.06
2022-10-22T07:53:38.480Z,100092.31
2022-10-22T07:56:06.632Z,100093.16
2022-10-22T07:58:34.572Z,100084.38
2022-10-22T08:01:05.603Z,100060.97
2022-10-22T08:03:33.976Z,99879.78
2022-10-22T08:06:02.626Z,100072.06
2022-10-22T08:08:31.234Z,100099.38
2022-10-22T08:11:02.337Z,100097.13
2022-10-22T08:13:31.541Z,100099.66
2022-10-22T08:15:59.898Z,100104.09
2022-10-22T08:18:27.858Z,100104.28
2022-10-22T08:20:56.244Z,100106.88
2022-10-22T08:23:26.127Z,100113.16
2022-10-22T08:25:57.071Z,100085.22
2022-10-22T08:28:28.526Z,100108.06
2022-10-22T08:30:56.522Z,100103.22
2022-10-22T08:33:24.443Z,100103.34
2022-10-22T08:35:53.427Z,100092.81
2022-10-22T08:38:21.562Z,100103.28
2022-10-22T08:40:52.757Z,100060.59
2022-10-22T08:43:38.873Z,100105.56
2022-10-22T08:46:18.453Z,100116.66
2022-10-22T08:48:49.594Z,100060.75
2022-10-22T08:51:19.527Z,100078.78
2022-10-22T08:54:06.636Z,99917.09
2022-10-22T08:56:37.571Z,100117.91
2022-10-22T08:59:13.736Z,100083.91
2022-10-22T09:01:46.975Z,100115.34
2022-10-22T09:04:25.511Z,100093.94
2022-10-22T09:06:54.971Z,100115.88
2022-10-22T09:09:27.039Z,100118.78
2022-10-22T09:11:58.639Z,100116.66
2022-10-22T09:14:29.886Z,100133.06
2022-10-22T09:17:15.180Z,100130.88
2022-10-22T09:19:54.365Z,100123.31
2022-10-22T09:22:30.872Z,100133.09
2022-10-22T09:25:03.763Z,100142.00
2022-10-22T09:27:32.951Z,100146.31
2022-10-22T09:30:03.064Z,100128.00
2022-10-22T09:32:30.958Z,100080.81
2022-10-22T09:34:59.717Z,100147.84
2022-10-22T09:37:30.311Z,100150.09
2022-10-22T09:39:59.947Z,100109.91
2022-10-22T09:42:27.996Z,100146.53
2022-10-22T09:44:58.678Z,100147.41
2022-10-22T09:47:43.261Z,100145.56
2022-10-22T09:50:28.570Z,100153.47
2022-10-22T09:53:00.557Z,100148.56
2022-10-22T09:55:28.500Z,100145.66
2022-10-22T09:57:57.478Z,100147.28
2022-10-22T10:00:26.260Z,100147.91
2022-10-22T10:03:00.840Z,100153.34
2022-10-22T10:05:32.553Z,100123.34
2022-10-22T10:08:03.147Z,100159.91
2022-10-22T10:10:42.932Z,100142.84
2022-10-22T10:13:26.654Z,100163.41
2022-10-22T10:16:00.134Z,100126.16
2022-10-22T10:18:38.877Z,100170.91
2022-10-22T10:21:17.131Z,100169.03
2022-10-22T10:23:54.192Z,100177.47
2022-10-22T10:26:28.865Z,100166.09
2022-10-22T10:29:06.497Z,100182.91
2022-10-22T10:31:44.771Z,100173.91
2022-10-22T10:34:24.222Z,100184.97
2022-10-22T10:36:59.447Z,100183.31
2022-10-22T10:39:40.507Z,100189.03
2022-10-22T10:42:18.912Z,100188.09
2022-10-22T10:45:02.154Z,100182.94
2022-10-22T10:47:46.090Z,100146.47
2022-10-22T10:50:25.573Z,100185.06
2022-10-22T10:53:04.733Z,100181.50
2022-10-22T10:55:37.916Z,100163.72
2022-10-22T10:58:16.920Z,100183.72
2022-10-22T11:00:54.276Z,100179.31
2022-10-22T11:03:59.740Z,100179.00
2022-10-22T11:06:31.480Z,100176.81
2022-10-22T11:09:04.057Z,100171.66
2022-10-22T11:11:38.660Z,100173.16
2022-10-22T11:14:15.199Z,100172.41
2022-10-22T11:16:48.703Z,100161.19
2022-10-22T11:19:22.807Z,100183.75
2022-10-22T11:22:05.137Z,100176.69
2022-10-22T11:24:41.442Z,100175.72
2022-10-22T11:27:19.656Z,100179.97
2022-10-22T11:29:53.427Z,100175.63
2022-10-22T11:32:23.648Z,100145.41
2022-10-22T11:34:54.238Z,100182.88
2022-10-22T11:37:27.318Z,100189.94
2022-10-22T11:39:59.741Z,100144.97
2022-10-22T11:42:35.280Z,100188.00
2022-10-22T11:45:05.668Z,100177.59
2022-10-22T11:47:36.739Z,100180.84
2022-10-22T11:50:20.363Z,100179.09
2022-10-22T11:53:04.301Z,100167.72
2022-10-22T11:55:45.957Z,100179.44
2022-10-22T11:58:33.244Z,100182.44
2022-10-22T12:01:22.561Z,100182.47
2022-10-22T12:03:52.856Z,100168.16
2022-10-22T12:06:24.361Z,100165.34
2022-10-22T12:08:59.702Z,100165.56
2022-10-22T12:11:36.199Z,100171.75
2022-10-22T12:14:18.853Z,100169.69
2022-10-22T12:16:57.719Z,100167.97
2022-10-22T12:19:30.036Z,100164.47
2022-10-22T12:22:01.026Z,100169.13
2022-10-22T12:24:35.350Z,100161.38
2022-10-22T12:27:03.588Z,100155.25
2022-10-22T12:29:33.881Z,100164.06
2022-10-22T12:32:04.841Z,100060.69
2022-10-22T12:34:32.667Z,100174.16
2022-10-22T12:37:00.514Z,100164.13
2022-10-22T12:39:29.064Z,100200.97
2022-10-22T12:41:58.291Z,100171.25
2022-10-22T12:44:26.247Z,100199.97
2022-10-22T12:46:56.974Z,100211.00
2022-10-22T12:49:35.412Z,100202.56
2022-10-22T12:52:07.685Z,100201.00
2022-10-22T12:54:38.792Z,100198.91
2022-10-22T12:57:13.812Z,100198.78
2022-10-22T12:59:47.280Z,100195.88
2022-10-22T13:02:22.646Z,100166.19
2022-10-22T13:05:17.348Z,100189.16
2022-10-22T13:07:49.090Z,100200.31
2022-10-22T13:10:21.142Z,100202.06
2022-10-22T13:12:57.072Z,100185.59
2022-10-22T13:15:37.999Z,100186.50
2022-10-22T13:18:18.389Z,100203.53
2022-10-22T13:20:57.107Z,100110.59
2022-10-22T13:23:26.646Z,100204.97
2022-10-22T13:26:00.182Z,100207.38
2022-10-22T13:28:30.163Z,100206.53
2022-10-22T13:31:00.456Z,100213.19
2022-10-22T13:33:30.384Z,100216.66
2022-10-22T13:35:58.429Z,100218.38
2022-10-22T13:38:27.730Z,100217.97
2022-10-22T13:40:56.679Z,100226.41
2022-10-22T13:43:25.334Z,100220.75
2022-10-22T13:45:58.539Z,100226.38
2022-10-22T13:48:29.100Z,100219.97
2022-10-22T13:50:57.061Z,100228.09
2022-10-22T13:53:27.983Z,100216.09
2022-10-22T13:55:56.264Z,100222.03
2022-10-22T13:58:25.753Z,100222.75
2022-10-22T14:00:58.139Z,100224.25
2022-10-22T14:03:29.436Z,100226.28
2022-10-22T14:05:58.256Z,100220.00
2022-10-22T14:08:28.069Z,100221.69
2022-10-22T14:10:56.570Z,100221.41
2022-10-22T14:13:24.542Z,100225.50
2022-10-22T14:15:53.568Z,100230.91
2022-10-22T14:18:29.108Z,100220.47
2022-10-22T14:20:59.894Z,100223.53
2022-10-22T14:23:29.692Z,100228.81
2022-10-22T14:25:58.069Z,100225.88
2022-10-22T14:28:26.377Z,100229.00
2022-10-22T14:30:55.687Z,100227.63
2022-10-22T14:33:30.586Z,100196.94
2022-10-22T14:36:00.184Z,100232.44
2022-10-22T14:38:28.832Z,100246.72
2022-10-22T14:40:57.294Z,100246.16
2022-10-22T14:43:27.266Z,100251.88
2022-10-22T14:45:55.890Z,100254.66
2022-10-22T14:48:25.809Z,100246.38
2022-10-22T14:50:53.619Z,100253.59
2022-10-22T14:53:21.770Z,100254.84
2022-10-22T14:55:51.527Z,100257.97
2022-10-22T14:58:19.674Z,100256.81
2022-10-22T15:00:47.558Z,100258.38
2022-10-22T15:03:15.784Z,100245.63
2022-10-22T15:05:45.457Z,100257.22
2022-10-22T15:08:14.535Z,100260.69
2022-10-22T15:10:42.765Z,100261.75
2022-10-22T15:13:10.730Z,100272.66
2022-10-22T15:15:41.057Z,100268.25
2022-10-22T15:18:09.176Z,100273.75
2022-10-22T15:20:37.165Z,100269.19
2022-10-22T15:23:06.444Z,100273.16
2022-10-22T15:25:34.444Z,100253.66
2022-10-22T15:28:09.653Z,100158.97
2022-10-22T15:30:38.147Z,100286.19
2022-10-22T15:33:06.435Z,100282.91
2022-10-22T15:35:34.546Z,100290.94
2022-10-22T15:38:02.619Z,100285.63
2022-10-22T15:40:31.866Z,100292.66
2022-10-22T15:42:59.838Z,100259.53
2022-10-22T15:45:27.799Z,100300.75
2022-10-22T15:47:55.636Z,100304.63
2022-10-22T15:50:23.608Z,100305.28
2022-10-22T15:52:51.507Z,100299.72
2022-10-22T15:55:19.637Z,100305.78
2022-10-22T15:57:54.683Z,100310.53
2022-10-22T16:00:25.031Z,100303.91
2022-10-22T16:02:54.897Z,100311.44
2022-10-22T16:05:22.830Z,100312.81
2022-10-22T16:07:51.495Z,100296.75
2022-10-22T16:10:19.456Z,100312.81
2022-10-22T16:12:51.669Z,100323.25
2022-10-22T16:15:19.751Z,100319.66
2022-10-22T16:17:47.644Z,100326.88
2022-10-22T16:20:15.625Z,100305.06
2022-10-22T16:22:43.686Z,100327.84
2022-10-22T16:25:11.749Z,100328.91
2022-10-22T16:27:39.566Z,100330.34
2022-10-22T16:30:09.504Z,100301.94
2022-10-22T16:32:37.453Z,100313.16
2022-10-22T16:35:05.957Z,100343.97
2022-10-22T16:37:33.885Z,100331.63
2022-10-22T16:40:04.519Z,100319.72
2022-10-22T16:42:36.208Z,100335.56
2022-10-22T16:45:04.534Z,100340.78
2022-10-22T16:47:33.848Z,100346.56
2022-10-22T16:50:01.675Z,100344.34
2022-10-22T16:52:29.530Z,100343.56
2022-10-22T16:54:58.153Z,100345.88
2022-10-22T16:57:25.994Z,100347.88
2022-10-22T16:59:54.298Z,100341.69
2022-10-22T17:02:22.175Z,100349.97
2022-10-22T17:04:51.503Z,100354.59
2022-10-22T17:07:19.515Z,100336.41
2022-10-22T17:09:47.552Z,100362.22
2022-10-22T17:12:16.160Z,100362.22
2022-10-22T17:14:44.009Z,100309.53
2022-10-22T17:17:12.003Z,100367.84
2022-10-22T17:19:40.053Z,100301.38
2022-10-22T17:22:09.359Z,100362.03
2022-10-22T17:24:38.815Z,100339.13
2022-10-22T17:27:06.700Z,100350.59
2022-10-22T17:29:37.552Z,100362.69
2022-10-22T17:32:05.849Z,100366.97
2022-10-22T17:34:33.943Z,100372.38
2022-10-22T17:37:01.763Z,100369.03
2022-10-22T17:39:31.085Z,100370.34
2022-10-22T17:41:58.955Z,100368.28
2022-10-22T17:44:26.949Z,100368.59
2022-10-22T17:46:54.816Z,100371.50
2022-10-22T17:49:22.645Z,100380.28
2022-10-22T17:51:50.672Z,100379.75
2022-10-22T17:54:18.519Z,100381.03
2022-10-22T17:56:47.871Z,100346.88
2022-10-22T17:59:17.856Z,100366.13
2022-10-22T18:01:47.965Z,100381.06
2022-10-22T18:04:18.038Z,100347.06
2022-10-22T18:06:47.290Z,100384.25
2022-10-22T18:09:18.721Z,100390.25
2022-10-22T18:11:49.458Z,100395.63
2022-10-22T18:14:17.672Z,100390.03
2022-10-22T18:16:45.787Z,100396.59
2022-10-22T18:19:16.116Z,100395.13
2022-10-22T18:21:43.766Z,100404.66
2022-10-22T18:24:11.854Z,100411.19
2022-10-22T18:26:39.709Z,100412.06
2022-10-22T18:29:08.985Z,100414.09
2022-10-22T18:31:36.829Z,100416.44
2022-10-22T18:34:04.683Z,100418.22
2022-10-22T18:36:32.702Z,100418.53
2022-10-22T18:39:01.837Z,100394.53
2022-10-22T18:41:31.662Z,100412.75
2022-10-22T18:44:01.542Z,100412.56
2022-10-22T18:46:34.658Z,100421.50
2022-10-22T18:49:02.903Z,100417.69
2022-10-22T18:51:31.625Z,100427.59
2022-10-22T18:54:05.764Z,100424.94
2022-10-22T18:56:40.992Z,100422.75
2022-10-22T18:59:16.305Z,100424.06
2022-10-22T19:01:45.742Z,100187.09
2022-10-22T19:04:14.184Z,100429.56
2022-10-22T19:06:45.545Z,100437.97
2022-10-22T19:09:14.965Z,100430.00
2022-10-22T19:11:43.512Z,100423.94
2022-10-22T19:14:11.598Z,100433.13
2022-10-22T19:16:39.523Z,100431.78
2022-10-22T19:19:09.159Z,100388.09
2022-10-22T19:21:38.122Z,100424.19
2022-10-22T19:24:06.807Z,100403.63
2022-10-22T19:26:34.920Z,100442.19
2022-10-22T19:29:03.620Z,100414.31
2022-10-22T19:31:31.671Z,100436.56
2022-10-22T19:34:00.075Z,100434.94
2022-10-22T19:36:30.167Z,100431.19
2022-10-22T19:38:58.765Z,100418.88
2022-10-22T19:41:28.442Z,100422.84
2022-10-22T19:43:57.703Z,100437.69
2022-10-22T19:46:27.108Z,100455.09
2022-10-22T19:48:57.121Z,100451.56
2022-10-22T19:51:29.689Z,100448.09
2022-10-22T19:54:00.398Z,100448.50
2022-10-22T19:56:29.345Z,100452.91
2022-10-22T19:58:57.542Z,100444.31
2022-10-22T20:01:26.008Z,100454.03
2022-10-22T20:03:54.311Z,100460.63
2022-10-22T20:06:22.874Z,100459.78
2022-10-22T20:08:53.777Z,100457.28
2022-10-22T20:11:28.063Z,100456.53
2022-10-22T20:13:57.182Z,100453.16
2022-10-22T20:16:28.562Z,100453.72
2022-10-22T20:18:59.925Z,100449.16
2022-10-22T20:21:28.227Z,100458.22
2022-10-22T20:23:57.281Z,100461.22
2022-10-22T20:26:28.875Z,100457.97
2022-10-22T20:28:57.537Z,100455.63
2022-10-22T20:31:27.817Z,100467.72
2022-10-22T20:33:56.498Z,100463.94
2022-10-22T20:36:25.000Z,100423.16
2022-10-22T20:38:53.292Z,100450.22
2022-10-22T20:41:23.288Z,100467.44
2022-10-22T20:43:53.328Z,100390.81
2022-10-22T20:46:23.929Z,100457.00
2022-10-22T20:48:52.811Z,100461.81
2022-10-22T20:51:20.891Z,100441.03
2022-10-22T20:53:49.156Z,100454.97
2022-10-22T20:56:17.908Z,100464.06
2022-10-22T20:58:48.504Z,100462.63
2022-10-22T21:01:21.843Z,100454.25
2022-10-22T21:03:49.984Z,100471.78
2022-10-22T21:06:20.938Z,100473.63
2022-10-22T21:08:49.092Z,100474.91
2022-10-22T21:11:17.340Z,100473.19
2022-10-22T21:13:45.265Z,100468.84
2022-10-22T21:16:14.921Z,100421.69
2022-10-22T21:18:44.216Z,100462.75
2022-10-22T21:21:12.823Z,100468.00
2022-10-22T21:23:41.209Z,100467.28
2022-10-22T21:26:09.060Z,100463.34
2022-10-22T21:28:38.013Z,100462.66
2022-10-22T21:31:07.630Z,100456.59
2022-10-22T21:33:36.829Z,100470.00
2022-10-22T21:36:08.914Z,100451.94
2022-10-22T21:38:38.007Z,100457.53
2022-10-22T21:41:06.832Z,100476.81
2022-10-22T21:43:35.044Z,100471.59
2022-10-22T21:46:08.187Z,100466.88
2022-10-22T21:48:37.123Z,100460.59
2022-10-22T21:51:11.954Z,100458.13
2022-10-22T21:53:40.685Z,100470.38
2022-10-22T21:56:09.860Z,100469.81
2022-10-22T21:58:38.162Z,100472.66
2022-10-22T22:01:06.258Z,100392.38
2022-10-22T22:03:34.174Z,100447.78
2022-10-22T22:06:03.583Z,100425.06
2022-10-22T22:08:33.691Z,100461.13
2022-10-22T22:11:03.082Z,100463.69
2022-10-22T22:13:31.015Z,100462.63
2022-10-22T22:16:02.581Z,100466.69
2022-10-22T22:18:30.860Z,100456.28
2022-10-22T22:20:59.885Z,100394.22
2022-10-22T22:23:27.866Z,100472.34
2022-10-22T22:26:01.124Z,100467.97
2022-10-22T22:28:30.383Z,100466.16
2022-10-22T22:30:58.649Z,100468.84
2022-10-22T22:33:26.829Z,100470.53
2022-10-22T22:35:58.773Z,100447.53
2022-10-22T22:38:26.835Z,100411.47
2022-10-22T22:40:54.643Z,100429.44
2022-10-22T22:43:23.877Z,100461.19
2022-10-22T22:45:59.986Z,100455.66
2022-10-22T22:48:28.208Z,100461.03
2022-10-22T22:50:56.071Z,100452.91
2022-10-22T22:53:23.931Z,100456.66
2022-10-22T22:55:51.761Z,100453.09
2022-10-22T22:58:19.733Z,100451.22
2022-10-22T23:00:48.915Z,100446.69
2022-10-22T23:03:16.739Z,100445.56
2022-10-22T23:05:44.600Z,100449.94
2022-10-22T23:08:12.763Z,100450.03
2022-10-22T23:10:40.800Z,100458.03
2022-10-22T23:13:08.816Z,100443.13
2022-10-22T23:15:40.370Z,100447.38
2022-10-22T23:18:09.644Z,100373.09
2022-10-22T23:20:38.796Z,100359.72
2022-10-22T23:23:06.702Z,100454.31
2022-10-22T23:25:34.642Z,100460.47
2022-10-22T23:28:02.510Z,100315.00
2022-10-22T23:30:30.358Z,100435.56
2022-10-22T23:32:58.135Z,100369.81
2022-10-22T23:35:27.387Z,100451.19
2022-10-22T23:37:55.228Z,100444.06
2022-10-22T23:40:23.060Z,100427.63
2022-10-22T23:42:50.875Z,100347.13
2022-10-22T23:45:18.970Z,100431.16
2022-10-22T23:47:46.736Z,100437.91
2022-10-22T23:50:14.725Z,100441.53
2022-10-22T23:52:44.359Z,100430.72
2022-10-22T23:55:12.686Z,100436.97
2022-10-22T23:57:40.652Z,100429.88
